Time,TemperatureF,DewpointF,PressureIn,WindDirection,WindDirectionDegrees,WindSpeedMPH,WindSpeedGustMPH,Humidity,HourlyPrecipIn,Conditions,Clouds,dailyrainin,SoftwareType,DateUTC
2013-06-19 00:00:00,61.6,50.6,29.88,WNW,293,1.4,1.7,67,0.00,,,0.00,LWC V2.10 B1500,2013-06-18 23:00:00,
2013-06-19 00:03:00,58.8,55.0,29.91,SSW,202,0.0,0.0,87,0.00,,,0.00,WeatherCatV1.15B25,2013-06-18 23:03:00,
2013-06-19 00:08:00,58.8,55.0,29.92,SSW,202,0.0,0.0,87,0.00,,,0.00,WeatherCatV1.15B25,2013-06-18 23:08:00,
2013-06-19 00:10:00,61.6,50.6,29.88,WNW,293,1.4,1.7,67,0.00,,,0.00,LWC V2.10 B1500,2013-06-18 23:10:00,
2013-06-19 00:13:00,58.8,55.0,29.92,SSW,202,0.0,0.0,87,0.00,,,0.00,WeatherCatV1.15B25,2013-06-18 23:13:00,
2013-06-19 00:18:00,58.8,55.0,29.92,SSW,202,0.0,0.0,87,0.00,,,0.00,WeatherCatV1.15B25,2013-06-18 23:18:00,
2013-06-19 00:20:00,61.6,50.6,29.88,WNW,293,1.4,1.7,67,0.00,,,0.00,LWC V2.10 B1500,2013-06-18 23:20:00,
2013-06-19 00:23:00,58.8,55.3,29.93,South,180,1.6,1.6,88,0.00,,,0.00,WeatherCatV1.15B25,2013-06-18 23:23:00,
2013-06-19 00:28:00,58.8,55.3,29.92,SSW,202,0.7,0.7,88,0.00,,,0.00,WeatherCatV1.15B25,2013-06-18 23:28:00,
2013-06-19 00:30:00,61.6,50.6,29.88,WNW,293,1.4,1.7,67,0.00,,,0.00,LWC V2.10 B1500,2013-06-18 23:30:00,
2013-06-19 00:33:00,58.8,55.3,29.92,SSW,202,0.0,0.0,88,0.00,,,0.00,WeatherCatV1.15B25,2013-06-18 23:33:00,
2013-06-19 00:38:00,58.8,55.3,29.92,SSW,202,0.0,0.0,88,0.00,,,0.00,WeatherCatV1.15B25,2013-06-18 23:38:00,
2013-06-19 00:40:00,61.6,50.5,29.88,WNW,293,1.4,1.7,67,0.00,,,0.00,LWC V2.10 B1500,2013-06-18 23:40:00,
2013-06-19 00:43:00,58.8,55.3,29.92,SSW,202,0.0,0.0,88,0.00,,,0.00,WeatherCatV1.15B25,2013-06-18 23:43:00,
2013-06-19 00:48:00,58.8,55.3,29.92,SSW,202,0.0,0.0,88,0.00,,,0.00,WeatherCatV1.15B25,2013-06-18 23:48:00,
2013-06-19 00:50:00,61.6,50.5,29.88,WNW,293,1.4,1.7,67,0.00,,,0.00,LWC V2.10 B1500,2013-06-18 23:50:00,
2013-06-19 00:53:00,58.8,55.3,29.91,SSW,202,0.0,0.0,88,0.00,,,0.00,WeatherCatV1.15B25,2013-06-18 23:53:00,
2013-06-19 00:58:00,58.8,55.3,29.92,SSW,202,0.0,0.0,88,0.00,,,0.00,WeatherCatV1.15B25,2013-06-18 23:58:00,
2013-06-19 01:00:00,61.6,50.5,29.88,WNW,293,1.4,1.7,67,0.00,,,0.00,LWC V2.10 B1500,2013-06-19 00:00:00,
2013-06-19 01:03:00,58.8,55.3,29.92,SSW,202,0.0,0.0,88,0.00,,,0.00,WeatherCatV1.15B25,2013-06-19 00:03:00,
2013-06-19 01:08:00,58.8,55.3,29.92,SSW,202,0.0,0.0,88,0.00,,,0.00,WeatherCatV1.15B25,2013-06-19 00:08:00,
2013-06-19 01:10:00,61.6,50.5,29.88,WNW,293,1.4,1.7,67,0.00,,,0.00,LWC V2.10 B1500,2013-06-19 00:10:00,
2013-06-19 01:13:00,58.8,55.3,29.92,SSW,202,0.0,0.0,88,0.00,,,0.00,WeatherCatV1.15B25,2013-06-19 00:13:00,
2013-06-19 01:18:00,58.8,55.3,29.91,SSW,202,0.0,0.0,88,0.00,,,0.00,WeatherCatV1.15B25,2013-06-19 00:18:00,
2013-06-19 01:20:00,61.6,50.5,29.88,WNW,293,1.4,1.7,67,0.00,,,0.00,LWC V2.10 B1500,2013-06-19 00:20:00,
2013-06-19 01:23:00,58.8,55.3,29.91,SSW,202,0.0,0.0,88,0.00,,,0.00,WeatherCatV1.15B25,2013-06-19 00:23:00,
2013-06-19 01:28:00,58.8,55.3,29.91,SSW,202,0.0,0.0,88,0.00,,,0.00,WeatherCatV1.15B25,2013-06-19 00:28:00,
2013-06-19 01:30:00,61.6,50.5,29.88,WNW,293,1.4,1.7,67,0.00,,,0.00,LWC V2.10 B1500,2013-06-19 00:30:00,
2013-06-19 01:33:00,58.6,54.9,29.91,SSW,202,0.0,0.0,88,0.00,,,0.00,WeatherCatV1.15B25,2013-06-19 00:33:00,
2013-06-19 01:38:00,58.3,54.8,29.91,SSW,202,0.0,0.0,88,0.00,,,0.00,WeatherCatV1.15B25,2013-06-19 00:38:00,
2013-06-19 01:40:00,61.6,50.5,29.88,WNW,293,1.4,1.7,67,0.00,,,0.00,LWC V2.10 B1500,2013-06-19 00:40:00,
2013-06-19 01:43:00,58.3,54.8,29.91,SSW,202,0.0,0.0,88,0.00,,,0.00,WeatherCatV1.15B25,2013-06-19 00:43:00,
2013-06-19 01:48:00,58.3,54.8,29.91,SSW,202,0.0,0.0,88,0.00,,,0.00,WeatherCatV1.15B25,2013-06-19 00:48:00,
2013-06-19 01:50:00,61.6,50.5,29.88,WNW,293,1.4,1.7,67,0.00,,,0.00,LWC V2.10 B1500,2013-06-19 00:50:00,
2013-06-19 01:53:00,58.1,54.6,29.91,SSW,202,0.0,0.0,88,0.00,,,0.00,WeatherCatV1.15B25,2013-06-19 00:53:00,
2013-06-19 01:58:00,58.1,54.6,29.91,West,270,0.0,0.0,88,0.00,,,0.00,WeatherCatV1.15B25,2013-06-19 00:58:00,
2013-06-19 02:00:00,61.6,50.5,29.88,WNW,293,1.4,1.7,67,0.00,,,0.00,LWC V2.10 B1500,2013-06-19 01:00:00,
2013-06-19 02:03:00,58.1,54.4,29.91,SSW,202,0.0,0.0,88,0.00,,,0.00,WeatherCatV1.15B25,2013-06-19 01:03:00,
2013-06-19 02:08:00,57.9,54.4,29.91,SSW,202,0.0,0.0,88,0.00,,,0.00,WeatherCatV1.15B25,2013-06-19 01:08:00,
2013-06-19 02:10:00,61.6,50.5,29.88,WNW,293,1.4,1.7,67,0.00,,,0.00,LWC V2.10 B1500,2013-06-19 01:10:00,
2013-06-19 02:13:00,57.9,54.4,29.91,SSW,202,0.0,0.0,88,0.00,,,0.00,WeatherCatV1.15B25,2013-06-19 01:13:00,
2013-06-19 02:18:00,57.9,54.4,29.91,SSW,202,0.0,0.0,88,0.00,,,0.00,WeatherCatV1.15B25,2013-06-19 01:18:00,
2013-06-19 02:20:00,61.6,50.5,29.88,WNW,293,1.4,1.7,67,0.00,,,0.00,LWC V2.10 B1500,2013-06-19 01:20:00,
2013-06-19 02:23:00,57.9,54.4,29.91,SSW,202,0.0,0.0,88,0.00,,,0.00,WeatherCatV1.15B25,2013-06-19 01:23:00,
2013-06-19 02:28:00,57.9,54.4,29.91,SSW,202,0.0,0.0,88,0.00,,,0.00,WeatherCatV1.15B25,2013-06-19 01:28:00,
2013-06-19 02:30:00,61.6,50.5,29.88,WNW,293,1.4,1.7,67,0.00,,,0.00,LWC V2.10 B1500,2013-06-19 01:30:00,
2013-06-19 02:33:00,57.9,54.4,29.91,SSW,202,0.0,0.0,88,0.00,,,0.00,WeatherCatV1.15B25,2013-06-19 01:33:00,
2013-06-19 02:38:00,57.9,54.7,29.91,SSW,202,0.0,0.0,89,0.00,,,0.00,WeatherCatV1.15B25,2013-06-19 01:38:00,
2013-06-19 02:40:00,61.6,50.5,29.88,WNW,293,1.4,1.7,67,0.00,,,0.00,LWC V2.10 B1500,2013-06-19 01:40:00,
2013-06-19 02:43:00,57.9,54.7,29.91,SSW,202,0.0,0.0,89,0.00,,,0.00,WeatherCatV1.15B25,2013-06-19 01:43:00,
2013-06-19 02:48:00,57.7,54.5,29.91,SSW,202,0.0,0.0,89,0.00,,,0.00,WeatherCatV1.15B25,2013-06-19 01:48:00,
2013-06-19 02:50:00,61.6,50.5,29.88,WNW,293,1.4,1.7,67,0.00,,,0.00,LWC V2.10 B1500,2013-06-19 01:50:00,
2013-06-19 02:53:00,57.9,54.7,29.91,SSW,202,0.0,0.0,89,0.00,,,0.00,WeatherCatV1.15B25,2013-06-19 01:53:00,
2013-06-19 02:58:00,57.9,54.7,29.91,SSW,202,0.0,0.0,89,0.00,,,0.00,WeatherCatV1.15B25,2013-06-19 01:58:00,
2013-06-19 03:00:00,61.6,50.5,29.88,WNW,293,1.4,1.7,67,0.00,,,0.00,LWC V2.10 B1500,2013-06-19 02:00:00,
2013-06-19 03:03:00,57.9,54.7,29.91,SSW,202,0.0,0.0,89,0.00,,,0.00,WeatherCatV1.15B25,2013-06-19 02:03:00,
2013-06-19 03:09:00,57.9,54.7,29.91,SSW,202,0.0,0.0,89,0.00,,,0.00,WeatherCatV1.15B25,2013-06-19 02:09:00,
2013-06-19 03:10:00,61.6,50.5,29.88,WNW,293,1.4,1.7,67,0.00,,,0.00,LWC V2.10 B1500,2013-06-19 02:10:00,
2013-06-19 03:14:00,57.9,54.7,29.91,SSW,202,0.0,0.0,89,0.00,,,0.00,WeatherCatV1.15B25,2013-06-19 02:14:00,
2013-06-19 03:19:00,57.9,54.7,29.91,SSW,202,0.0,0.0,89,0.00,,,0.00,WeatherCatV1.15B25,2013-06-19 02:19:00,
2013-06-19 03:20:00,61.6,50.5,29.88,WNW,293,1.4,1.7,67,0.00,,,0.00,LWC V2.10 B1500,2013-06-19 02:20:00,
2013-06-19 03:24:00,57.9,54.7,29.91,SSW,202,0.0,0.0,89,0.00,,,0.00,WeatherCatV1.15B25,2013-06-19 02:24:00,
2013-06-19 03:29:00,57.9,54.7,29.91,SSW,202,0.0,0.0,89,0.00,,,0.00,WeatherCatV1.15B25,2013-06-19 02:29:00,
2013-06-19 03:30:00,61.6,50.5,29.88,WNW,293,1.4,1.7,67,0.00,,,0.00,LWC V2.10 B1500,2013-06-19 02:30:00,
2013-06-19 03:34:00,57.9,54.7,29.91,SSW,202,0.0,0.0,89,0.00,,,0.00,WeatherCatV1.15B25,2013-06-19 02:34:00,
2013-06-19 03:39:00,57.9,54.7,29.91,SSW,202,0.0,0.0,89,0.00,,,0.00,WeatherCatV1.15B25,2013-06-19 02:39:00,
2013-06-19 03:40:00,61.6,50.5,29.88,WNW,293,1.4,1.7,67,0.00,,,0.00,LWC V2.10 B1500,2013-06-19 02:40:00,
2013-06-19 03:44:00,57.9,54.7,29.90,SSW,202,0.0,0.0,89,0.00,,,0.00,WeatherCatV1.15B25,2013-06-19 02:44:00,
2013-06-19 03:49:00,57.7,54.5,29.90,SSW,202,0.0,0.0,89,0.00,,,0.00,WeatherCatV1.15B25,2013-06-19 02:49:00,
2013-06-19 03:50:00,61.6,50.5,29.88,WNW,293,1.4,1.7,67,0.00,,,0.00,LWC V2.10 B1500,2013-06-19 02:50:00,
2013-06-19 03:54:00,57.7,54.5,29.90,SSW,202,0.0,0.0,89,0.00,,,0.00,WeatherCatV1.15B25,2013-06-19 02:54:00,
2013-06-19 03:59:00,57.7,54.5,29.90,South,180,0.0,0.0,89,0.00,,,0.00,WeatherCatV1.15B25,2013-06-19 02:59:00,
2013-06-19 04:00:00,61.6,50.5,29.88,WNW,293,1.4,1.7,67,0.00,,,0.00,LWC V2.10 B1500,2013-06-19 03:00:00,
2013-06-19 04:04:00,57.6,54.4,29.89,SSW,202,0.0,0.0,89,0.00,,,0.00,WeatherCatV1.15B25,2013-06-19 03:04:00,
2013-06-19 04:09:00,57.6,54.4,29.88,SSW,202,0.0,0.0,89,0.00,,,0.00,WeatherCatV1.15B25,2013-06-19 03:09:00,
2013-06-19 04:10:00,61.6,50.5,29.88,WNW,293,1.4,1.8,67,0.00,,,0.00,LWC V2.10 B1500,2013-06-19 03:10:00,
2013-06-19 04:14:00,57.6,54.4,29.88,SSW,202,0.0,0.0,89,0.00,,,0.00,WeatherCatV1.15B25,2013-06-19 03:14:00,
2013-06-19 04:19:00,57.6,54.4,29.88,SSW,202,0.0,0.0,89,0.00,,,0.00,WeatherCatV1.15B25,2013-06-19 03:19:00,
2013-06-19 04:20:00,61.6,50.5,29.88,WNW,293,1.4,1.8,67,0.00,,,0.00,LWC V2.10 B1500,2013-06-19 03:20:00,
2013-06-19 04:24:00,57.6,54.4,29.88,SSW,202,0.0,0.0,89,0.00,,,0.00,WeatherCatV1.15B25,2013-06-19 03:24:00,
2013-06-19 04:29:00,57.4,54.2,29.89,SSW,202,3.4,3.4,89,0.00,,,0.00,WeatherCatV1.15B25,2013-06-19 03:29:00,
2013-06-19 04:30:00,61.6,50.5,29.88,WNW,293,1.4,1.8,67,0.00,,,0.00,LWC V2.10 B1500,2013-06-19 03:30:00,
2013-06-19 04:34:00,57.4,54.2,29.89,South,180,2.5,2.5,89,0.00,,,0.00,WeatherCatV1.15B25,2013-06-19 03:34:00,
2013-06-19 04:39:00,57.4,54.2,29.88,South,180,0.0,0.0,89,0.00,,,0.00,WeatherCatV1.15B25,2013-06-19 03:39:00,
2013-06-19 04:40:00,61.6,50.5,29.88,WNW,293,1.4,1.8,67,0.00,,,0.00,LWC V2.10 B1500,2013-06-19 03:40:00,
2013-06-19 04:44:00,57.4,54.2,29.88,South,180,0.0,0.0,89,0.00,,,0.00,WeatherCatV1.15B25,2013-06-19 03:44:00,
2013-06-19 04:49:00,57.4,54.2,29.89,SSW,202,0.0,0.0,89,0.00,,,0.00,WeatherCatV1.15B25,2013-06-19 03:49:00,
2013-06-19 04:50:00,61.6,50.5,29.88,WNW,293,1.4,1.8,67,0.00,,,0.00,LWC V2.10 B1500,2013-06-19 03:50:00,
2013-06-19 04:54:00,57.4,54.2,29.89,SSW,202,0.0,0.0,89,0.00,,,0.00,WeatherCatV1.15B25,2013-06-19 03:54:00,
2013-06-19 04:59:00,57.4,54.2,29.89,SSW,202,0.0,0.0,89,0.00,,,0.00,WeatherCatV1.15B25,2013-06-19 03:59:00,
2013-06-19 05:00:00,61.6,50.5,29.89,WNW,293,1.4,1.8,67,0.00,,,0.00,LWC V2.10 B1500,2013-06-19 04:00:00,
2013-06-19 05:01:00,57.4,54.2,29.89,SSW,202,0.0,0.0,89,0.00,,,0.00,WeatherCatV1.15B25,2013-06-19 04:01:00,
2013-06-19 05:06:00,57.4,54.2,29.89,SSW,202,0.0,0.0,89,0.00,,,0.00,WeatherCatV1.15B25,2013-06-19 04:06:00,
2013-06-19 05:10:00,61.6,50.5,29.89,WNW,293,1.4,1.8,67,0.00,,,0.00,LWC V2.10 B1500,2013-06-19 04:10:00,
2013-06-19 05:11:00,57.4,54.2,29.89,SSW,202,0.0,0.0,89,0.00,,,0.00,WeatherCatV1.15B25,2013-06-19 04:11:00,
2013-06-19 05:16:00,57.4,54.2,29.88,SSW,202,0.0,0.0,89,0.00,,,0.00,WeatherCatV1.15B25,2013-06-19 04:16:00,
2013-06-19 05:20:00,61.6,50.5,29.89,WNW,293,1.4,1.8,67,0.00,,,0.00,LWC V2.10 B1500,2013-06-19 04:20:00,
2013-06-19 05:21:00,57.2,54.0,29.88,SSW,202,0.0,0.0,89,0.00,,,0.00,WeatherCatV1.15B25,2013-06-19 04:21:00,
2013-06-19 05:26:00,57.4,54.2,29.88,SSW,202,0.0,0.0,89,0.00,,,0.00,WeatherCatV1.15B25,2013-06-19 04:26:00,
2013-06-19 05:30:00,61.6,50.5,29.89,WNW,293,1.4,1.8,67,0.00,,,0.00,LWC V2.10 B1500,2013-06-19 04:30:00,
2013-06-19 05:31:00,57.4,54.2,29.89,SSW,202,0.0,0.0,89,0.00,,,0.00,WeatherCatV1.15B25,2013-06-19 04:31:00,
2013-06-19 05:36:00,57.4,54.5,29.88,SSW,202,0.0,0.0,90,0.00,,,0.00,WeatherCatV1.15B25,2013-06-19 04:36:00,
2013-06-19 05:40:00,61.6,50.5,29.89,WNW,293,1.4,1.8,67,0.00,,,0.00,LWC V2.10 B1500,2013-06-19 04:40:00,
2013-06-19 05:41:00,57.4,54.5,29.89,SSW,202,1.3,1.3,90,0.00,,,0.00,WeatherCatV1.15B25,2013-06-19 04:41:00,
2013-06-19 05:46:00,57.4,54.5,29.89,SSW,202,0.0,0.0,90,0.00,,,0.00,WeatherCatV1.15B25,2013-06-19 04:46:00,
2013-06-19 05:50:00,61.6,50.5,29.89,WNW,293,1.5,1.8,67,0.00,,,0.00,LWC V2.10 B1500,2013-06-19 04:50:00,
2013-06-19 05:51:00,57.4,54.5,29.89,SSW,202,0.0,0.0,90,0.00,,,0.00,WeatherCatV1.15B25,2013-06-19 04:51:00,
2013-06-19 05:56:00,57.6,54.7,29.90,SSW,202,1.3,1.3,90,0.00,,,0.00,WeatherCatV1.15B25,2013-06-19 04:56:00,
2013-06-19 06:00:00,61.6,50.5,29.89,WNW,293,1.5,1.8,67,0.00,,,0.00,LWC V2.10 B1500,2013-06-19 05:00:00,
2013-06-19 06:01:00,57.6,54.7,29.90,South,180,1.6,1.6,90,0.00,,,0.00,WeatherCatV1.15B25,2013-06-19 05:01:00,
2013-06-19 06:06:00,57.7,54.9,29.92,SSW,202,3.1,3.1,90,0.00,,,0.00,WeatherCatV1.15B25,2013-06-19 05:06:00,
2013-06-19 06:10:00,61.6,50.5,29.89,WNW,293,1.5,1.8,67,0.00,,,0.00,LWC V2.10 B1500,2013-06-19 05:10:00,
2013-06-19 06:11:00,57.7,54.9,29.92,South,180,0.0,0.0,90,0.00,,,0.00,WeatherCatV1.15B25,2013-06-19 05:11:00,
2013-06-19 06:16:00,57.7,54.9,29.91,South,180,0.0,0.0,90,0.00,,,0.00,WeatherCatV1.15B25,2013-06-19 05:16:00,
2013-06-19 06:20:00,61.6,50.5,29.89,WNW,293,1.5,1.8,67,0.00,,,0.00,LWC V2.10 B1500,2013-06-19 05:20:00,
2013-06-19 06:21:00,57.7,54.9,29.90,SE,135,0.0,0.0,90,0.00,,,0.00,WeatherCatV1.15B25,2013-06-19 05:21:00,
2013-06-19 06:26:00,57.7,54.9,29.89,SE,135,0.0,0.0,90,0.00,,,0.00,WeatherCatV1.15B25,2013-06-19 05:26:00,
2013-06-19 06:30:00,61.6,50.5,29.89,WNW,293,1.5,1.8,67,0.00,,,0.00,LWC V2.10 B1500,2013-06-19 05:30:00,
2013-06-19 06:31:00,57.7,54.9,29.89,SE,135,0.0,0.0,90,0.00,,,0.00,WeatherCatV1.15B25,2013-06-19 05:31:00,
2013-06-19 06:36:00,57.7,-99.9,29.89,SE,135,-999.0,0.0,-999,0.00,,,0.00,WeatherCatV1.15B25,2013-06-19 05:36:00,
2013-06-19 06:37:00,-999.0,-99.9,29.89,SE,135,-999.0,0.0,-999,0.00,,,0.00,WeatherCatV1.15B25,2013-06-19 05:37:00,
2013-06-19 06:40:00,61.6,50.5,29.89,WNW,293,1.5,1.8,67,0.00,,,0.00,LWC V2.10 B1500,2013-06-19 05:40:00,
2013-06-19 06:41:00,-999.0,-99.9,29.88,SE,135,-999.0,0.0,-999,0.00,,,0.00,WeatherCatV1.15B25,2013-06-19 05:41:00,
2013-06-19 06:46:00,-999.0,-99.9,29.88,SE,135,-999.0,0.0,-999,0.00,,,0.00,WeatherCatV1.15B25,2013-06-19 05:46:00,
2013-06-19 06:50:00,61.6,50.5,29.89,WNW,293,1.5,1.8,67,0.00,,,0.00,LWC V2.10 B1500,2013-06-19 05:50:00,
2013-06-19 06:51:00,57.7,-99.9,29.88,SE,135,-999.0,0.0,-999,0.00,,,0.00,WeatherCatV1.15B25,2013-06-19 05:51:00,
2013-06-19 06:56:00,57.9,-99.9,29.88,SE,135,-999.0,0.0,-999,0.00,,,0.00,WeatherCatV1.15B25,2013-06-19 05:56:00,
2013-06-19 07:00:00,61.6,50.5,29.89,WNW,293,1.5,1.8,67,0.00,,,0.00,LWC V2.10 B1500,2013-06-19 06:00:00,
2013-06-19 07:01:00,57.9,55.0,29.88,SE,135,-999.0,0.0,90,0.00,,,0.00,WeatherCatV1.15B25,2013-06-19 06:01:00,
2013-06-19 07:06:00,57.9,55.0,29.88,SE,135,-999.0,0.0,91,0.00,,,0.00,WeatherCatV1.15B25,2013-06-19 06:06:00,
2013-06-19 07:10:00,61.6,50.5,29.89,WNW,293,1.5,1.8,67,0.00,,,0.00,LWC V2.10 B1500,2013-06-19 06:10:00,
2013-06-19 07:11:00,57.9,55.3,29.88,SE,135,-999.0,0.0,91,0.00,,,0.00,WeatherCatV1.15B25,2013-06-19 06:11:00,
2013-06-19 07:16:00,58.8,55.9,29.89,SSW,202,1.3,1.3,90,0.00,,,0.00,WeatherCatV1.15B25,2013-06-19 06:16:00,
2013-06-19 07:20:00,61.6,50.5,29.89,WNW,293,1.5,1.8,67,0.00,,,0.00,LWC V2.10 B1500,2013-06-19 06:20:00,
2013-06-19 07:21:00,58.8,55.9,29.90,South,180,0.0,0.0,90,0.00,,,0.00,WeatherCatV1.15B25,2013-06-19 06:21:00,
2013-06-19 07:26:00,59.0,56.1,29.91,South,180,0.0,0.0,90,0.00,,,0.00,WeatherCatV1.15B25,2013-06-19 06:26:00,
2013-06-19 07:30:00,61.6,50.5,29.89,WNW,293,1.5,1.8,67,0.00,,,0.00,LWC V2.10 B1500,2013-06-19 06:30:00,
2013-06-19 07:31:00,59.4,56.5,29.91,SSW,202,0.0,0.0,90,0.00,,,0.00,WeatherCatV1.15B25,2013-06-19 06:31:00,
2013-06-19 07:36:00,59.7,57.1,29.91,South,180,0.0,0.0,91,0.00,,,0.00,WeatherCatV1.15B25,2013-06-19 06:36:00,
2013-06-19 07:40:00,61.6,50.5,29.89,WNW,293,1.5,1.8,67,0.00,,,0.00,LWC V2.10 B1500,2013-06-19 06:40:00,
2013-06-19 07:41:00,59.7,56.8,29.91,South,180,0.0,0.0,90,0.00,,,0.00,WeatherCatV1.15B25,2013-06-19 06:41:00,
2013-06-19 07:46:00,60.3,57.4,29.91,South,180,0.0,0.0,90,0.00,,,0.00,WeatherCatV1.15B25,2013-06-19 06:46:00,
2013-06-19 07:50:00,61.6,50.5,29.89,WNW,293,1.5,1.8,67,0.00,,,0.00,LWC V2.10 B1500,2013-06-19 06:50:00,
2013-06-19 07:51:00,60.4,57.6,29.91,South,180,0.0,0.0,90,0.00,,,0.00,WeatherCatV1.15B25,2013-06-19 06:51:00,
2013-06-19 07:56:00,60.6,57.7,29.92,South,180,0.0,0.0,90,0.00,,,0.00,WeatherCatV1.15B25,2013-06-19 06:56:00,
2013-06-19 08:00:00,61.6,50.5,29.89,WNW,293,1.5,1.8,67,0.00,,,0.00,LWC V2.10 B1500,2013-06-19 07:00:00,
2013-06-19 08:01:00,60.6,58.0,29.92,South,180,0.0,0.0,91,0.00,,,0.00,WeatherCatV1.15B25,2013-06-19 07:01:00,
2013-06-19 08:06:00,61.3,58.7,29.91,South,180,0.0,0.0,91,0.00,,,0.00,WeatherCatV1.15B25,2013-06-19 07:06:00,
2013-06-19 08:10:00,61.6,50.5,29.89,WNW,293,1.5,1.8,67,0.00,,,0.00,LWC V2.10 B1500,2013-06-19 07:10:00,
2013-06-19 08:11:00,61.9,59.0,29.91,South,180,0.0,0.0,90,0.00,,,0.00,WeatherCatV1.15B25,2013-06-19 07:11:00,
2013-06-19 08:16:00,62.2,59.4,29.91,South,180,0.0,0.0,90,0.00,,,0.00,WeatherCatV1.15B25,2013-06-19 07:16:00,
2013-06-19 08:20:00,61.6,50.5,29.89,WNW,293,1.5,1.8,67,0.00,,,0.00,LWC V2.10 B1500,2013-06-19 07:20:00,
2013-06-19 08:21:00,63.7,60.8,29.92,South,180,0.0,0.0,90,0.00,,,0.00,WeatherCatV1.15B25,2013-06-19 07:21:00,
2013-06-19 08:26:00,64.2,61.0,29.91,South,180,0.0,0.0,89,0.00,,,0.00,WeatherCatV1.15B25,2013-06-19 07:26:00,
2013-06-19 08:30:00,61.6,50.5,29.89,WNW,293,1.5,1.8,67,0.00,,,0.00,LWC V2.10 B1500,2013-06-19 07:30:00,
2013-06-19 08:31:00,64.2,61.0,29.91,SSE,157,0.0,0.0,89,0.00,,,0.00,WeatherCatV1.15B25,2013-06-19 07:31:00,
2013-06-19 08:36:00,64.0,60.5,29.91,NNE,22,0.0,0.0,88,0.00,,,0.00,WeatherCatV1.15B25,2013-06-19 07:36:00,
2013-06-19 08:40:00,61.6,50.5,29.89,WNW,293,1.5,1.8,67,0.00,,,0.00,LWC V2.10 B1500,2013-06-19 07:40:00,
2013-06-19 08:41:00,64.9,61.3,29.90,North,0,0.0,0.0,88,0.00,,,0.00,WeatherCatV1.15B25,2013-06-19 07:41:00,
2013-06-19 08:46:00,66.4,62.7,29.90,NNE,22,0.0,0.0,88,0.00,,,0.00,WeatherCatV1.15B25,2013-06-19 07:46:00,
2013-06-19 08:50:00,61.6,50.5,29.89,WNW,293,1.5,1.8,67,0.00,,,0.00,LWC V2.10 B1500,2013-06-19 07:50:00,
2013-06-19 08:51:00,66.9,62.6,29.90,North,0,0.0,0.0,86,0.00,,,0.00,WeatherCatV1.15B25,2013-06-19 07:51:00,
2013-06-19 08:56:00,66.9,62.6,29.90,North,0,0.0,0.0,86,0.00,,,0.00,WeatherCatV1.15B25,2013-06-19 07:56:00,
2013-06-19 09:00:00,61.6,50.5,29.89,WNW,293,1.5,1.8,67,0.00,,,0.00,LWC V2.10 B1500,2013-06-19 08:00:00,
2013-06-19 09:01:00,66.9,62.6,29.89,NNW,337,0.0,0.0,86,0.00,,,0.00,WeatherCatV1.15B25,2013-06-19 08:01:00,
2013-06-19 09:06:00,66.9,60.9,29.90,NNW,337,0.0,0.0,81,0.00,,,0.00,WeatherCatV1.15B25,2013-06-19 08:06:00,
2013-06-19 09:10:00,61.6,50.5,29.89,WNW,293,1.5,1.8,67,0.00,,,0.00,LWC V2.10 B1500,2013-06-19 08:10:00,
2013-06-19 09:11:00,66.9,60.9,29.89,NNW,337,0.0,0.0,81,0.00,,,0.00,WeatherCatV1.15B25,2013-06-19 08:11:00,
2013-06-19 09:16:00,69.6,63.5,29.90,NNE,22,0.0,0.0,81,0.00,,,0.00,WeatherCatV1.15B25,2013-06-19 08:16:00,
2013-06-19 09:20:00,61.6,50.5,29.89,WNW,293,1.5,1.8,67,0.00,,,0.00,LWC V2.10 B1500,2013-06-19 08:20:00,
2013-06-19 09:21:00,69.6,63.5,29.91,NNE,22,1.1,1.1,81,0.00,,,0.00,WeatherCatV1.15B25,2013-06-19 08:21:00,
2013-06-19 09:26:00,69.6,63.2,29.91,NNE,22,0.0,0.0,80,0.00,,,0.00,WeatherCatV1.15B25,2013-06-19 08:26:00,
2013-06-19 09:30:00,61.6,50.5,29.89,WNW,293,1.5,1.8,67,0.00,,,0.00,LWC V2.10 B1500,2013-06-19 08:30:00,
2013-06-19 09:31:00,69.6,63.2,29.91,NNE,22,0.0,0.0,80,0.00,,,0.00,WeatherCatV1.15B25,2013-06-19 08:31:00,
2013-06-19 09:36:00,69.6,63.2,29.91,NNE,22,0.0,0.0,80,0.00,,,0.00,WeatherCatV1.15B25,2013-06-19 08:36:00,
2013-06-19 09:40:00,61.6,50.5,29.89,WNW,293,1.5,1.8,67,0.00,,,0.00,LWC V2.10 B1500,2013-06-19 08:40:00,
2013-06-19 09:41:00,69.6,63.2,29.90,NNE,22,0.0,0.0,80,0.00,,,0.00,WeatherCatV1.15B25,2013-06-19 08:41:00,
2013-06-19 09:46:00,-999.0,-99.9,29.90,NNE,22,-999.0,0.0,-999,0.00,,,0.00,WeatherCatV1.15B25,2013-06-19 08:46:00,
2013-06-19 09:50:00,61.6,50.5,29.89,WNW,293,1.5,1.8,67,0.00,,,0.00,LWC V2.10 B1500,2013-06-19 08:50:00,
2013-06-19 09:51:00,-999.0,-99.9,29.90,NNE,22,-999.0,0.0,-999,0.00,,,0.00,WeatherCatV1.15B25,2013-06-19 08:51:00,
2013-06-19 09:56:00,-999.0,-99.9,29.90,NNE,22,-999.0,0.0,-999,0.00,,,0.00,WeatherCatV1.15B25,2013-06-19 08:56:00,
2013-06-19 10:00:00,61.6,50.5,29.89,WNW,293,1.5,1.8,67,0.00,,,0.00,LWC V2.10 B1500,2013-06-19 09:00:00,
2013-06-19 10:01:00,-999.0,-99.9,29.90,NNE,22,-999.0,0.0,-999,0.00,,,0.00,WeatherCatV1.15B25,2013-06-19 09:01:00,
2013-06-19 10:06:00,-999.0,-99.9,29.91,NNE,22,-999.0,0.0,-999,0.00,,,0.00,WeatherCatV1.15B25,2013-06-19 09:06:00,
2013-06-19 10:10:00,61.6,50.5,29.89,WNW,293,1.5,1.8,67,0.00,,,0.00,LWC V2.10 B1500,2013-06-19 09:10:00,
2013-06-19 10:11:00,-999.0,-99.9,29.91,NNE,22,-999.0,0.0,-999,0.00,,,0.00,WeatherCatV1.15B25,2013-06-19 09:11:00,
2013-06-19 10:16:00,-999.0,-99.9,29.91,NNE,22,-999.0,0.0,-999,0.00,,,0.00,WeatherCatV1.15B25,2013-06-19 09:16:00,
2013-06-19 10:20:00,61.6,50.5,29.89,WNW,293,1.5,1.8,67,0.00,,,0.00,LWC V2.10 B1500,2013-06-19 09:20:00,
2013-06-19 10:21:00,-999.0,-99.9,29.91,NNE,22,-999.0,0.0,-999,0.00,,,0.00,WeatherCatV1.15B25,2013-06-19 09:21:00,
2013-06-19 10:27:00,-999.0,-99.9,29.92,NNE,22,-999.0,0.0,-999,0.00,,,0.00,WeatherCatV1.15B25,2013-06-19 09:27:00,
2013-06-19 10:30:00,61.6,50.5,29.89,WNW,293,1.5,1.8,67,0.00,,,0.00,LWC V2.10 B1500,2013-06-19 09:30:00,
2013-06-19 10:32:00,-999.0,-99.9,29.91,NNE,22,-999.0,0.0,-999,0.00,,,0.00,WeatherCatV1.15B25,2013-06-19 09:32:00,
2013-06-19 10:37:00,-999.0,-99.9,29.90,NNE,22,-999.0,0.0,-999,0.00,,,0.00,WeatherCatV1.15B25,2013-06-19 09:37:00,
2013-06-19 10:40:00,61.6,50.5,29.89,WNW,293,1.5,1.8,67,0.00,,,0.00,LWC V2.10 B1500,2013-06-19 09:40:00,
2013-06-19 10:42:00,-999.0,-99.9,29.91,NNE,22,-999.0,0.0,-999,0.00,,,0.00,WeatherCatV1.15B25,2013-06-19 09:42:00,
2013-06-19 10:47:00,-999.0,-99.9,29.91,NNE,22,-999.0,0.0,-999,0.00,,,0.00,WeatherCatV1.15B25,2013-06-19 09:47:00,
2013-06-19 10:50:00,61.6,50.5,29.89,WNW,293,1.5,1.8,67,0.00,,,0.00,LWC V2.10 B1500,2013-06-19 09:50:00,
2013-06-19 10:52:00,-999.0,-99.9,29.91,NNE,22,-999.0,0.0,-999,0.00,,,0.00,WeatherCatV1.15B25,2013-06-19 09:52:00,
2013-06-19 10:57:00,-999.0,-99.9,29.91,NNE,22,-999.0,0.0,-999,0.00,,,0.00,WeatherCatV1.15B25,2013-06-19 09:57:00,
2013-06-19 11:00:00,61.6,50.5,29.89,WNW,293,1.5,1.8,67,0.00,,,0.00,LWC V2.10 B1500,2013-06-19 10:00:00,
2013-06-19 11:02:00,-999.0,-99.9,29.91,NNE,22,-999.0,0.0,-999,0.00,,,0.00,WeatherCatV1.15B25,2013-06-19 10:02:00,
2013-06-19 11:07:00,-999.0,-99.9,29.91,NNE,22,-999.0,0.0,-999,0.00,,,0.00,WeatherCatV1.15B25,2013-06-19 10:07:00,
2013-06-19 11:10:00,61.6,50.5,29.89,WNW,293,1.5,1.8,67,0.00,,,0.00,LWC V2.10 B1500,2013-06-19 10:10:00,
2013-06-19 11:12:00,-999.0,-99.9,29.90,NNE,22,-999.0,0.0,-999,0.00,,,0.00,WeatherCatV1.15B25,2013-06-19 10:12:00,
2013-06-19 11:17:00,-999.0,-99.9,29.90,NNE,22,-999.0,0.0,-999,0.00,,,0.00,WeatherCatV1.15B25,2013-06-19 10:17:00,
2013-06-19 11:20:00,61.6,50.5,29.89,WNW,293,1.5,1.8,67,0.00,,,0.00,LWC V2.10 B1500,2013-06-19 10:20:00,
2013-06-19 11:22:00,-999.0,-99.9,29.90,NNE,22,-999.0,0.0,-999,0.00,,,0.00,WeatherCatV1.15B25,2013-06-19 10:22:00,
2013-06-19 11:27:00,-999.0,-99.9,29.90,NNE,22,-999.0,0.0,-999,0.00,,,0.00,WeatherCatV1.15B25,2013-06-19 10:27:00,
2013-06-19 11:30:00,61.6,50.5,29.89,WNW,293,1.5,1.8,67,0.00,,,0.00,LWC V2.10 B1500,2013-06-19 10:30:00,
2013-06-19 11:32:00,-999.0,-99.9,29.90,NNE,22,-999.0,0.0,-999,0.00,,,0.00,WeatherCatV1.15B25,2013-06-19 10:32:00,
2013-06-19 11:37:00,-999.0,-99.9,29.90,NNE,22,-999.0,0.0,-999,0.00,,,0.00,WeatherCatV1.15B25,2013-06-19 10:37:00,
2013-06-19 11:40:00,61.6,50.5,29.89,WNW,293,1.5,1.8,67,0.00,,,0.00,LWC V2.10 B1500,2013-06-19 10:40:00,
2013-06-19 11:42:00,-999.0,-99.9,29.90,NNE,22,-999.0,0.0,-999,0.00,,,0.00,WeatherCatV1.15B25,2013-06-19 10:42:00,
2013-06-19 11:47:00,-999.0,-99.9,29.89,NNE,22,-999.0,0.0,-999,0.00,,,0.00,WeatherCatV1.15B25,2013-06-19 10:47:00,
2013-06-19 11:50:00,61.6,50.5,29.89,WNW,293,1.5,1.8,67,0.00,,,0.00,LWC V2.10 B1500,2013-06-19 10:50:00,
2013-06-19 11:52:00,-999.0,-99.9,29.89,NNE,22,-999.0,0.0,-999,0.00,,,0.00,WeatherCatV1.15B25,2013-06-19 10:52:00,
2013-06-19 11:58:00,-999.0,-99.9,29.90,NNE,22,-999.0,0.0,-999,0.00,,,0.00,WeatherCatV1.15B25,2013-06-19 10:58:00,
2013-06-19 12:00:00,61.6,50.5,29.89,WNW,293,1.5,1.8,67,0.00,,,0.00,LWC V2.10 B1500,2013-06-19 11:00:00,
2013-06-19 12:03:00,-999.0,-99.9,29.89,NNE,22,-999.0,0.0,-999,0.00,,,0.00,WeatherCatV1.15B25,2013-06-19 11:03:00,
2013-06-19 12:08:00,76.8,65.0,29.89,NW,315,0.0,0.0,67,0.00,,,0.00,WeatherCatV1.15B25,2013-06-19 11:08:00,
2013-06-19 12:10:00,61.6,50.5,29.89,WNW,293,1.5,1.8,67,0.00,,,0.00,LWC V2.10 B1500,2013-06-19 11:10:00,
2013-06-19 12:13:00,77.2,65.4,29.88,NNW,337,0.0,0.0,67,0.00,,,0.00,WeatherCatV1.15B25,2013-06-19 11:13:00,
2013-06-19 12:18:00,77.7,65.9,29.89,WSW,247,0.0,0.0,67,0.00,,,0.00,WeatherCatV1.15B25,2013-06-19 11:18:00,
2013-06-19 12:20:00,61.6,50.5,29.89,WNW,293,1.5,1.8,67,0.00,,,0.00,LWC V2.10 B1500,2013-06-19 11:20:00,
2013-06-19 12:23:00,77.9,65.6,29.89,WSW,247,0.0,0.0,66,0.00,,,0.00,WeatherCatV1.15B25,2013-06-19 11:23:00,
2013-06-19 12:28:00,78.4,65.7,29.88,NNW,337,0.0,0.0,65,0.00,,,0.00,WeatherCatV1.15B25,2013-06-19 11:28:00,
2013-06-19 12:30:00,61.6,50.5,29.89,WNW,293,1.5,1.8,67,0.00,,,0.00,LWC V2.10 B1500,2013-06-19 11:30:00,
2013-06-19 12:33:00,78.6,65.8,29.88,WSW,247,0.0,0.0,65,0.00,,,0.00,WeatherCatV1.15B25,2013-06-19 11:33:00,
2013-06-19 12:38:00,79.0,65.8,29.88,WNW,292,0.0,0.0,65,0.00,,,0.00,WeatherCatV1.15B25,2013-06-19 11:38:00,
2013-06-19 12:40:00,61.6,50.5,29.89,WNW,293,1.5,1.8,67,0.00,,,0.00,LWC V2.10 B1500,2013-06-19 11:40:00,
2013-06-19 12:43:00,79.5,66.3,29.88,WSW,247,0.0,0.0,64,0.00,,,0.00,WeatherCatV1.15B25,2013-06-19 11:43:00,
2013-06-19 12:48:00,79.5,66.3,29.89,WSW,247,0.0,0.0,64,0.00,,,0.00,WeatherCatV1.15B25,2013-06-19 11:48:00,
2013-06-19 12:50:00,61.6,50.5,29.89,WNW,293,1.5,1.8,67,0.00,,,0.00,LWC V2.10 B1500,2013-06-19 11:50:00,
2013-06-19 12:53:00,79.5,66.0,29.89,NNW,337,0.0,0.0,63,0.00,,,0.00,WeatherCatV1.15B25,2013-06-19 11:53:00,
2013-06-19 12:58:00,79.9,66.1,29.89,NNW,337,-999.0,0.0,63,0.00,,,0.00,WeatherCatV1.15B25,2013-06-19 11:58:00,
2013-06-19 13:00:00,61.6,50.5,29.89,WNW,293,1.5,1.8,67,0.00,,,0.00,LWC V2.10 B1500,2013-06-19 12:00:00,
2013-06-19 13:03:00,79.9,65.7,29.88,NW,315,0.0,0.0,62,0.00,,,0.00,WeatherCatV1.15B25,2013-06-19 12:03:00,
2013-06-19 13:08:00,80.2,66.0,29.89,West,270,0.0,0.0,62,0.00,,,0.00,WeatherCatV1.15B25,2013-06-19 12:08:00,
2013-06-19 13:10:00,61.6,50.5,29.89,WNW,293,1.5,1.8,67,0.00,,,0.00,LWC V2.10 B1500,2013-06-19 12:10:00,
2013-06-19 13:13:00,80.4,66.2,29.88,West,270,0.0,0.0,62,0.00,,,0.00,WeatherCatV1.15B25,2013-06-19 12:13:00,
2013-06-19 13:18:00,81.0,66.3,29.88,West,270,0.0,0.0,61,0.00,,,0.00,WeatherCatV1.15B25,2013-06-19 12:18:00,
2013-06-19 13:20:00,61.6,50.5,29.89,WNW,293,1.5,1.8,67,0.00,,,0.00,LWC V2.10 B1500,2013-06-19 12:20:00,
2013-06-19 13:23:00,81.1,66.4,29.88,WNW,292,0.0,0.0,61,0.00,,,0.00,WeatherCatV1.15B25,2013-06-19 12:23:00,
2013-06-19 13:28:00,81.1,66.0,29.88,WNW,292,0.0,0.0,60,0.00,,,0.00,WeatherCatV1.15B25,2013-06-19 12:28:00,
2013-06-19 13:30:00,61.6,50.5,29.89,WNW,293,1.5,1.8,67,0.00,,,0.00,LWC V2.10 B1500,2013-06-19 12:30:00,
2013-06-19 13:33:00,81.1,66.0,29.88,SE,135,1.3,1.3,60,0.00,,,0.00,WeatherCatV1.15B25,2013-06-19 12:33:00,
2013-06-19 13:38:00,81.3,66.1,29.88,WSW,247,0.0,0.0,60,0.00,,,0.00,WeatherCatV1.15B25,2013-06-19 12:38:00,
2013-06-19 13:40:00,61.6,50.5,29.89,WNW,293,1.5,1.8,67,0.00,,,0.00,LWC V2.10 B1500,2013-06-19 12:40:00,
2013-06-19 13:43:00,81.7,66.5,29.88,West,270,0.0,0.0,60,0.00,,,0.00,WeatherCatV1.15B25,2013-06-19 12:43:00,
2013-06-19 13:48:00,81.7,66.5,29.88,West,270,0.0,0.0,60,0.00,,,0.00,WeatherCatV1.15B25,2013-06-19 12:48:00,
2013-06-19 13:50:00,61.6,50.5,29.89,WNW,293,1.5,1.8,67,0.00,,,0.00,LWC V2.10 B1500,2013-06-19 12:50:00,
2013-06-19 13:53:00,81.1,65.4,29.88,North,0,0.0,0.0,59,0.00,,,0.00,WeatherCatV1.15B25,2013-06-19 12:53:00,
2013-06-19 13:58:00,81.1,65.4,29.88,WNW,292,0.0,0.0,59,0.00,,,0.00,WeatherCatV1.15B25,2013-06-19 12:58:00,
2013-06-19 14:00:00,61.6,50.5,29.89,WNW,293,1.5,1.8,67,0.00,,,0.00,LWC V2.10 B1500,2013-06-19 13:00:00,
2013-06-19 14:03:00,81.5,65.8,29.87,West,270,0.0,0.0,59,0.00,,,0.00,WeatherCatV1.15B25,2013-06-19 13:03:00,
2013-06-19 14:08:00,80.8,65.6,29.88,NW,315,0.0,0.0,60,0.00,,,0.00,WeatherCatV1.15B25,2013-06-19 13:08:00,
2013-06-19 14:10:00,61.6,50.5,29.89,WNW,293,1.5,1.8,67,0.00,,,0.00,LWC V2.10 B1500,2013-06-19 13:10:00,
2013-06-19 14:13:00,80.2,65.2,29.88,NW,315,0.0,0.0,60,0.00,,,0.00,WeatherCatV1.15B25,2013-06-19 13:13:00,
2013-06-19 14:18:00,80.4,65.3,29.87,NW,315,0.0,0.0,60,0.00,,,0.00,WeatherCatV1.15B25,2013-06-19 13:18:00,
2013-06-19 14:20:00,61.6,50.5,29.89,WNW,293,1.5,1.8,67,0.00,,,0.00,LWC V2.10 B1500,2013-06-19 13:20:00,
2013-06-19 14:23:00,82.2,66.4,29.88,NW,315,0.0,0.0,59,0.00,,,0.00,WeatherCatV1.15B25,2013-06-19 13:23:00,
2013-06-19 14:28:00,82.2,66.4,29.88,North,0,0.0,0.0,59,0.00,,,0.00,WeatherCatV1.15B25,2013-06-19 13:28:00,
2013-06-19 14:30:00,61.6,50.5,29.89,WNW,293,1.5,1.8,67,0.00,,,0.00,LWC V2.10 B1500,2013-06-19 13:30:00,
2013-06-19 14:33:00,82.0,65.7,29.88,NW,315,0.0,0.0,58,0.00,,,0.00,WeatherCatV1.15B25,2013-06-19 13:33:00,
2013-06-19 14:38:00,82.2,65.9,29.88,WNW,292,0.0,0.0,58,0.00,,,0.00,WeatherCatV1.15B25,2013-06-19 13:38:00,
2013-06-19 14:40:00,61.6,50.5,29.89,WNW,293,1.5,1.8,67,0.00,,,0.00,LWC V2.10 B1500,2013-06-19 13:40:00,
2013-06-19 14:43:00,81.5,65.2,29.87,NW,315,0.0,0.0,58,0.00,,,0.00,WeatherCatV1.15B25,2013-06-19 13:43:00,
2013-06-19 14:48:00,80.6,65.0,29.88,NW,315,0.0,0.0,59,0.00,,,0.00,WeatherCatV1.15B25,2013-06-19 13:48:00,
2013-06-19 14:50:00,61.6,50.5,29.89,WNW,293,1.5,1.8,67,0.00,,,0.00,LWC V2.10 B1500,2013-06-19 13:50:00,
2013-06-19 14:53:00,79.7,64.7,29.88,NW,315,0.0,0.0,60,0.00,,,0.00,WeatherCatV1.15B25,2013-06-19 13:53:00,
2013-06-19 14:58:00,79.7,64.7,29.87,South,180,0.0,0.0,60,0.00,,,0.00,WeatherCatV1.15B25,2013-06-19 13:58:00,
2013-06-19 15:00:00,61.6,50.5,29.89,WNW,293,1.5,1.8,67,0.00,,,0.00,LWC V2.10 B1500,2013-06-19 14:00:00,
2013-06-19 15:03:00,79.0,64.0,29.87,SSW,202,0.0,0.0,60,0.00,,,0.00,WeatherCatV1.15B25,2013-06-19 14:03:00,
2013-06-19 15:08:00,78.8,64.3,29.87,SW,225,0.0,0.0,61,0.00,,,0.00,WeatherCatV1.15B25,2013-06-19 14:08:00,
2013-06-19 15:10:00,61.6,50.5,29.89,WNW,293,1.5,1.8,67,0.00,,,0.00,LWC V2.10 B1500,2013-06-19 14:10:00,
2013-06-19 15:13:00,78.6,64.1,29.87,SW,225,0.0,0.0,61,0.00,,,0.00,WeatherCatV1.15B25,2013-06-19 14:13:00,
2013-06-19 15:18:00,78.6,63.7,29.87,North,0,0.0,0.0,60,0.00,,,0.00,WeatherCatV1.15B25,2013-06-19 14:18:00,
2013-06-19 15:20:00,61.6,50.5,29.89,WNW,293,1.5,1.8,67,0.00,,,0.00,LWC V2.10 B1500,2013-06-19 14:20:00,
2013-06-19 15:23:00,78.4,63.9,29.86,NNW,337,0.0,0.0,61,0.00,,,0.00,WeatherCatV1.15B25,2013-06-19 14:23:00,
2013-06-19 15:28:00,77.7,63.2,29.86,NNW,337,0.0,0.0,61,0.00,,,0.00,WeatherCatV1.15B25,2013-06-19 14:28:00,
2013-06-19 15:30:00,61.6,50.5,29.89,WNW,293,1.5,1.8,67,0.00,,,0.00,LWC V2.10 B1500,2013-06-19 14:30:00,
2013-06-19 15:33:00,77.5,63.0,29.86,NNW,337,0.0,0.0,61,0.00,,,0.00,WeatherCatV1.15B25,2013-06-19 14:33:00,
2013-06-19 15:38:00,77.5,63.5,29.85,NNW,337,0.0,0.0,62,0.00,,,0.00,WeatherCatV1.15B25,2013-06-19 14:38:00,
2013-06-19 15:40:00,61.6,50.5,29.89,WNW,293,1.5,1.8,67,0.00,,,0.00,LWC V2.10 B1500,2013-06-19 14:40:00,
2013-06-19 15:43:00,77.2,63.1,29.85,NNW,337,0.0,0.0,62,0.00,,,0.00,WeatherCatV1.15B25,2013-06-19 14:43:00,
2013-06-19 15:48:00,76.8,62.8,29.85,NNW,337,0.0,0.0,62,0.00,,,0.00,WeatherCatV1.15B25,2013-06-19 14:48:00,
2013-06-19 15:50:00,61.6,50.5,29.89,WNW,293,1.5,1.8,67,0.00,,,0.00,LWC V2.10 B1500,2013-06-19 14:50:00,
2013-06-19 15:53:00,76.3,62.3,29.86,NNW,337,0.0,0.0,62,0.00,,,0.00,WeatherCatV1.15B25,2013-06-19 14:53:00,
2013-06-19 15:58:00,75.7,61.8,29.85,NNW,337,0.0,0.0,62,0.00,,,0.00,WeatherCatV1.15B25,2013-06-19 14:58:00,
2013-06-19 16:00:00,61.6,50.5,29.89,WNW,293,1.5,1.8,67,0.00,,,0.00,LWC V2.10 B1500,2013-06-19 15:00:00,
2013-06-19 16:03:00,75.4,61.9,29.86,NNW,337,0.0,0.0,63,0.00,,,0.00,WeatherCatV1.15B25,2013-06-19 15:03:00,
2013-06-19 16:08:00,75.0,62.0,29.85,NNW,337,0.0,0.0,64,0.00,,,0.00,WeatherCatV1.15B25,2013-06-19 15:08:00,
2013-06-19 16:10:00,61.6,50.5,29.89,WNW,293,1.5,1.8,67,0.00,,,0.00,LWC V2.10 B1500,2013-06-19 15:10:00,
2013-06-19 16:13:00,75.0,62.0,29.85,NNW,337,0.0,0.0,64,0.00,,,0.00,WeatherCatV1.15B25,2013-06-19 15:13:00,
2013-06-19 16:18:00,74.8,61.8,29.85,NNW,337,0.0,0.0,64,0.00,,,0.00,WeatherCatV1.15B25,2013-06-19 15:18:00,
2013-06-19 16:20:00,61.6,50.5,29.89,WNW,293,1.5,1.8,67,0.00,,,0.00,LWC V2.10 B1500,2013-06-19 15:20:00,
2013-06-19 16:23:00,74.8,61.8,29.85,NNW,337,0.0,0.0,64,0.00,,,0.00,WeatherCatV1.15B25,2013-06-19 15:23:00,
2013-06-19 16:28:00,74.5,61.0,29.86,NW,315,0.0,0.0,63,0.00,,,0.00,WeatherCatV1.15B25,2013-06-19 15:28:00,
2013-06-19 16:30:00,61.6,50.5,29.89,WNW,293,1.5,1.8,67,0.00,,,0.00,LWC V2.10 B1500,2013-06-19 15:30:00,
2013-06-19 16:33:00,74.5,61.0,29.86,NW,315,0.0,0.0,63,0.00,,,0.00,WeatherCatV1.15B25,2013-06-19 15:33:00,
2013-06-19 16:38:00,74.5,61.0,29.85,NW,315,0.0,0.0,63,0.00,,,0.00,WeatherCatV1.15B25,2013-06-19 15:38:00,
2013-06-19 16:40:00,61.6,50.5,29.89,WNW,293,1.5,1.8,67,0.00,,,0.00,LWC V2.10 B1500,2013-06-19 15:40:00,
2013-06-19 16:43:00,74.5,61.5,29.85,NW,315,0.0,0.0,64,0.00,,,0.00,WeatherCatV1.15B25,2013-06-19 15:43:00,
2013-06-19 16:48:00,74.5,61.5,29.85,NW,315,0.0,0.0,64,0.00,,,0.00,WeatherCatV1.15B25,2013-06-19 15:48:00,
2013-06-19 16:50:00,61.6,50.5,29.89,WNW,293,1.5,1.8,67,0.00,,,0.00,LWC V2.10 B1500,2013-06-19 15:50:00,
2013-06-19 16:53:00,74.3,61.3,29.84,NW,315,0.0,0.0,64,0.00,,,0.00,WeatherCatV1.15B25,2013-06-19 15:53:00,
2013-06-19 16:58:00,74.5,61.9,29.84,NW,315,0.0,0.0,65,0.00,,,0.00,WeatherCatV1.15B25,2013-06-19 15:58:00,
2013-06-19 17:00:00,61.6,50.5,29.89,WNW,293,1.5,1.8,67,0.00,,,0.00,LWC V2.10 B1500,2013-06-19 16:00:00,
2013-06-19 17:03:00,74.5,61.9,29.84,NW,315,0.0,0.0,65,0.00,,,0.00,WeatherCatV1.15B25,2013-06-19 16:03:00,
2013-06-19 17:08:00,74.8,62.3,29.84,West,270,0.0,0.0,65,0.00,,,0.00,WeatherCatV1.15B25,2013-06-19 16:08:00,
2013-06-19 17:10:00,61.6,50.5,29.89,WNW,293,1.5,1.8,67,0.00,,,0.00,LWC V2.10 B1500,2013-06-19 16:10:00,
2013-06-19 17:13:00,75.0,62.4,29.85,NW,315,0.0,0.0,65,0.00,,,0.00,WeatherCatV1.15B25,2013-06-19 16:13:00,
2013-06-19 17:18:00,75.6,62.3,29.85,NW,315,0.0,0.0,64,0.00,,,0.00,WeatherCatV1.15B25,2013-06-19 16:18:00,
2013-06-19 17:20:00,61.6,50.5,29.89,WNW,293,1.5,1.8,67,0.00,,,0.00,LWC V2.10 B1500,2013-06-19 16:20:00,
2013-06-19 17:23:00,75.4,61.9,29.85,NW,315,0.0,0.0,63,0.00,,,0.00,WeatherCatV1.15B25,2013-06-19 16:23:00,
2013-06-19 17:28:00,75.4,61.9,29.85,NW,315,0.0,0.0,63,0.00,,,0.00,WeatherCatV1.15B25,2013-06-19 16:28:00,
2013-06-19 17:30:00,61.6,50.5,29.89,WNW,293,1.5,1.8,67,0.00,,,0.00,LWC V2.10 B1500,2013-06-19 16:30:00,
2013-06-19 17:33:00,75.0,62.0,29.86,NW,315,0.0,0.0,64,0.00,,,0.00,WeatherCatV1.15B25,2013-06-19 16:33:00,
2013-06-19 17:38:00,74.7,62.1,29.86,NW,315,0.0,0.0,65,0.00,,,0.00,WeatherCatV1.15B25,2013-06-19 16:38:00,
2013-06-19 17:40:00,61.6,50.5,29.89,WNW,293,1.5,1.8,67,0.00,,,0.00,LWC V2.10 B1500,2013-06-19 16:40:00,
2013-06-19 17:43:00,74.3,61.7,29.86,NW,315,0.0,0.0,65,0.00,,,0.00,WeatherCatV1.15B25,2013-06-19 16:43:00,
2013-06-19 17:48:00,73.9,61.6,29.86,NW,315,0.0,0.0,65,0.00,,,0.00,WeatherCatV1.15B25,2013-06-19 16:48:00,
2013-06-19 17:50:00,61.6,50.5,29.89,WNW,293,1.5,1.8,67,0.00,,,0.00,LWC V2.10 B1500,2013-06-19 16:50:00,
2013-06-19 17:53:00,73.6,61.1,29.86,NW,315,0.0,0.0,65,0.00,,,0.00,WeatherCatV1.15B25,2013-06-19 16:53:00,
2013-06-19 17:58:00,73.4,60.9,29.86,NW,315,0.0,0.0,65,0.00,,,0.00,WeatherCatV1.15B25,2013-06-19 16:58:00,
2013-06-19 18:00:00,61.6,50.5,29.89,WNW,293,1.5,1.8,67,0.00,,,0.00,LWC V2.10 B1500,2013-06-19 17:00:00,
2013-06-19 18:03:00,73.2,60.7,29.87,NW,315,0.0,0.0,65,0.00,,,0.00,WeatherCatV1.15B25,2013-06-19 17:03:00,
2013-06-19 18:08:00,72.9,60.8,29.87,NW,315,0.0,0.0,66,0.00,,,0.00,WeatherCatV1.15B25,2013-06-19 17:08:00,
2013-06-19 18:10:00,61.6,50.5,29.89,WNW,293,1.5,1.8,67,0.00,,,0.00,LWC V2.10 B1500,2013-06-19 17:10:00,
2013-06-19 18:13:00,72.7,60.6,29.87,NW,315,0.0,0.0,66,0.00,,,0.00,WeatherCatV1.15B25,2013-06-19 17:13:00,
2013-06-19 18:18:00,72.7,60.6,29.87,NW,315,0.0,0.0,66,0.00,,,0.00,WeatherCatV1.15B25,2013-06-19 17:18:00,
2013-06-19 18:20:00,61.6,50.5,29.89,WNW,293,1.5,1.8,67,0.00,,,0.00,LWC V2.10 B1500,2013-06-19 17:20:00,
2013-06-19 18:23:00,72.3,59.9,29.87,NW,315,0.0,0.0,65,0.00,,,0.00,WeatherCatV1.15B25,2013-06-19 17:23:00,
2013-06-19 18:28:00,72.3,59.9,29.87,NW,315,0.0,0.0,65,0.00,,,0.00,WeatherCatV1.15B25,2013-06-19 17:28:00,
2013-06-19 18:30:00,61.6,50.5,29.89,WNW,293,1.5,1.8,67,0.00,,,0.00,LWC V2.10 B1500,2013-06-19 17:30:00,
2013-06-19 18:33:00,72.3,59.9,29.87,NW,315,0.0,0.0,65,0.00,,,0.00,WeatherCatV1.15B25,2013-06-19 17:33:00,
2013-06-19 18:38:00,72.3,59.9,29.87,NW,315,0.0,0.0,65,0.00,,,0.00,WeatherCatV1.15B25,2013-06-19 17:38:00,
2013-06-19 18:40:00,61.6,50.5,29.89,WNW,293,1.5,1.8,67,0.00,,,0.00,LWC V2.10 B1500,2013-06-19 17:40:00,
2013-06-19 18:43:00,72.1,59.7,29.87,NW,315,0.0,0.0,65,0.00,,,0.00,WeatherCatV1.15B25,2013-06-19 17:43:00,
2013-06-19 18:48:00,72.1,59.3,29.87,NW,315,0.0,0.0,64,0.00,,,0.00,WeatherCatV1.15B25,2013-06-19 17:48:00,
2013-06-19 18:50:00,61.6,50.5,29.89,WNW,293,1.5,1.8,67,0.00,,,0.00,LWC V2.10 B1500,2013-06-19 17:50:00,
2013-06-19 18:53:00,72.1,59.3,29.87,NW,315,0.0,0.0,64,0.00,,,0.00,WeatherCatV1.15B25,2013-06-19 17:53:00,
2013-06-19 18:58:00,72.1,59.3,29.88,NW,315,0.0,0.0,64,0.00,,,0.00,WeatherCatV1.15B25,2013-06-19 17:58:00,
2013-06-19 19:00:00,61.6,50.5,29.89,WNW,293,1.5,1.8,67,0.00,,,0.00,LWC V2.10 B1500,2013-06-19 18:00:00,
2013-06-19 19:03:00,72.1,59.5,29.88,NW,315,0.0,0.0,65,0.00,,,0.00,WeatherCatV1.15B25,2013-06-19 18:03:00,
2013-06-19 19:08:00,72.0,60.0,29.88,NW,315,0.0,0.0,66,0.00,,,0.00,WeatherCatV1.15B25,2013-06-19 18:08:00,
2013-06-19 19:10:00,61.6,50.5,29.89,WNW,293,1.5,1.8,67,0.00,,,0.00,LWC V2.10 B1500,2013-06-19 18:10:00,
2013-06-19 19:13:00,71.8,60.2,29.88,NW,315,0.0,0.0,67,0.00,,,0.00,WeatherCatV1.15B25,2013-06-19 18:13:00,
2013-06-19 19:18:00,71.8,60.2,29.88,NW,315,0.0,0.0,67,0.00,,,0.00,WeatherCatV1.15B25,2013-06-19 18:18:00,
2013-06-19 19:20:00,61.6,50.5,29.89,WNW,293,1.5,1.8,67,0.00,,,0.00,LWC V2.10 B1500,2013-06-19 18:20:00,
2013-06-19 19:23:00,71.6,60.5,29.88,NW,315,0.0,0.0,68,0.00,,,0.00,WeatherCatV1.15B25,2013-06-19 18:23:00,
2013-06-19 19:28:00,71.4,60.3,29.88,NW,315,0.0,0.0,68,0.00,,,0.00,WeatherCatV1.15B25,2013-06-19 18:28:00,
2013-06-19 19:30:00,61.6,50.5,29.89,WNW,293,1.5,1.9,67,0.00,,,0.00,LWC V2.10 B1500,2013-06-19 18:30:00,
2013-06-19 19:33:00,71.4,60.3,29.87,NW,315,0.0,0.0,68,0.00,,,0.00,WeatherCatV1.15B25,2013-06-19 18:33:00,
2013-06-19 19:38:00,71.4,60.7,29.88,NW,315,0.0,0.0,69,0.00,,,0.00,WeatherCatV1.15B25,2013-06-19 18:38:00,
2013-06-19 19:40:00,61.6,50.5,29.89,WNW,293,1.5,1.9,67,0.00,,,0.00,LWC V2.10 B1500,2013-06-19 18:40:00,
2013-06-19 19:43:00,71.2,60.5,29.87,NW,315,0.0,0.0,69,0.00,,,0.00,WeatherCatV1.15B25,2013-06-19 18:43:00,
2013-06-19 19:48:00,71.2,60.5,29.88,NW,315,0.0,0.0,69,0.00,,,0.00,WeatherCatV1.15B25,2013-06-19 18:48:00,
2013-06-19 19:50:00,61.6,50.5,29.89,WNW,293,1.5,1.9,67,0.00,,,0.00,LWC V2.10 B1500,2013-06-19 18:50:00,
2013-06-19 19:53:00,71.2,60.5,29.89,NW,315,0.0,0.0,69,0.00,,,0.00,WeatherCatV1.15B25,2013-06-19 18:53:00,
2013-06-19 19:58:00,71.2,61.0,29.88,NNE,22,0.0,0.0,70,0.00,,,0.00,WeatherCatV1.15B25,2013-06-19 18:58:00,
2013-06-19 20:00:00,61.6,50.5,29.89,WNW,293,1.5,1.9,67,0.00,,,0.00,LWC V2.10 B1500,2013-06-19 19:00:00,
2013-06-19 20:03:00,70.9,60.6,29.88,NNW,337,0.0,0.0,70,0.00,,,0.00,WeatherCatV1.15B25,2013-06-19 19:03:00,
2013-06-19 20:08:00,70.9,60.6,29.88,NNW,337,0.0,0.0,70,0.00,,,0.00,WeatherCatV1.15B25,2013-06-19 19:08:00,
2013-06-19 20:10:00,61.6,50.5,29.89,WNW,293,1.5,1.9,67,0.00,,,0.00,LWC V2.10 B1500,2013-06-19 19:10:00,
2013-06-19 20:13:00,70.9,60.6,29.88,NNW,337,0.0,0.0,70,0.00,,,0.00,WeatherCatV1.15B25,2013-06-19 19:13:00,
2013-06-19 20:18:00,70.9,60.6,29.88,NW,315,0.0,0.0,70,0.00,,,0.00,WeatherCatV1.15B25,2013-06-19 19:18:00,
2013-06-19 20:20:00,61.6,50.5,29.89,WNW,293,1.5,1.9,67,0.00,,,0.00,LWC V2.10 B1500,2013-06-19 19:20:00,
2013-06-19 20:23:00,70.9,60.6,29.89,NW,315,0.0,0.0,70,0.00,,,0.00,WeatherCatV1.15B25,2013-06-19 19:23:00,
2013-06-19 20:28:00,70.9,60.6,29.89,NNW,337,0.0,0.0,70,0.00,,,0.00,WeatherCatV1.15B25,2013-06-19 19:28:00,
2013-06-19 20:30:00,61.6,50.5,29.89,WNW,293,1.5,1.9,67,0.00,,,0.00,LWC V2.10 B1500,2013-06-19 19:30:00,
2013-06-19 20:33:00,70.9,61.0,29.88,NNW,337,0.0,0.0,71,0.00,,,0.00,WeatherCatV1.15B25,2013-06-19 19:33:00,
2013-06-19 20:38:00,70.9,61.0,29.88,NNW,337,0.0,0.0,71,0.00,,,0.00,WeatherCatV1.15B25,2013-06-19 19:38:00,
2013-06-19 20:40:00,61.6,50.5,29.89,WNW,293,1.5,1.9,67,0.00,,,0.00,LWC V2.10 B1500,2013-06-19 19:40:00,
2013-06-19 20:43:00,70.9,61.0,29.88,NNW,337,0.0,0.0,71,0.00,,,0.00,WeatherCatV1.15B25,2013-06-19 19:43:00,
2013-06-19 20:48:00,70.7,60.8,29.88,NW,315,0.0,0.0,71,0.00,,,0.00,WeatherCatV1.15B25,2013-06-19 19:48:00,
2013-06-19 20:50:00,61.6,50.5,29.89,WNW,293,1.5,1.9,67,0.00,,,0.00,LWC V2.10 B1500,2013-06-19 19:50:00,
2013-06-19 20:53:00,70.7,60.8,29.88,NW,315,0.0,0.0,71,0.00,,,0.00,WeatherCatV1.15B25,2013-06-19 19:53:00,
2013-06-19 20:58:00,70.5,60.6,29.88,NNW,337,0.0,0.0,71,0.00,,,0.00,WeatherCatV1.15B25,2013-06-19 19:58:00,
2013-06-19 21:00:00,61.6,50.5,29.89,WNW,293,1.6,1.9,67,0.00,,,0.00,LWC V2.10 B1500,2013-06-19 20:00:00,
2013-06-19 21:03:00,70.3,60.5,29.88,NNE,22,0.0,0.0,71,0.00,,,0.00,WeatherCatV1.15B25,2013-06-19 20:03:00,
2013-06-19 21:08:00,70.2,60.3,29.88,North,0,0.0,0.0,71,0.00,,,0.00,WeatherCatV1.15B25,2013-06-19 20:08:00,
2013-06-19 21:10:00,61.6,50.5,29.89,WNW,293,1.6,1.9,67,0.00,,,0.00,LWC V2.10 B1500,2013-06-19 20:10:00,
2013-06-19 21:13:00,70.0,60.1,29.88,NNW,337,0.0,0.0,71,0.00,,,0.00,WeatherCatV1.15B25,2013-06-19 20:13:00,
2013-06-19 21:18:00,70.0,60.5,29.88,North,0,0.0,0.0,72,0.00,,,0.00,WeatherCatV1.15B25,2013-06-19 20:18:00,
2013-06-19 21:20:00,61.6,50.5,29.89,WNW,293,1.6,1.9,67,0.00,,,0.00,LWC V2.10 B1500,2013-06-19 20:20:00,
2013-06-19 21:23:00,70.0,60.5,29.89,North,0,0.0,0.0,72,0.00,,,0.00,WeatherCatV1.15B25,2013-06-19 20:23:00,
2013-06-19 21:28:00,70.0,60.5,29.88,SW,225,0.0,0.0,72,0.00,,,0.00,WeatherCatV1.15B25,2013-06-19 20:28:00,
2013-06-19 21:30:00,61.6,50.5,29.89,WNW,293,1.6,1.9,67,0.00,,,0.00,LWC V2.10 B1500,2013-06-19 20:30:00,
2013-06-19 21:33:00,70.0,60.5,29.88,South,180,0.0,0.0,72,0.00,,,0.00,WeatherCatV1.15B25,2013-06-19 20:33:00,
2013-06-19 21:38:00,70.0,60.5,29.88,SW,225,0.0,0.0,72,0.00,,,0.00,WeatherCatV1.15B25,2013-06-19 20:38:00,
2013-06-19 21:40:00,61.6,50.5,29.89,WNW,293,1.6,1.9,67,0.00,,,0.00,LWC V2.10 B1500,2013-06-19 20:40:00,
2013-06-19 21:43:00,69.6,60.5,29.88,SW,225,0.0,0.0,73,0.00,,,0.00,WeatherCatV1.15B25,2013-06-19 20:43:00,
2013-06-19 21:48:00,69.3,60.2,29.88,South,180,0.0,0.0,73,0.00,,,0.00,WeatherCatV1.15B25,2013-06-19 20:48:00,
2013-06-19 21:50:00,61.6,50.5,29.89,WNW,293,1.6,1.9,67,0.00,,,0.00,LWC V2.10 B1500,2013-06-19 20:50:00,
2013-06-19 21:53:00,69.1,60.0,29.88,SW,225,0.0,0.0,73,0.00,,,0.00,WeatherCatV1.15B25,2013-06-19 20:53:00,
2013-06-19 21:58:00,69.1,60.4,29.88,SSW,202,0.7,0.7,74,0.00,,,0.00,WeatherCatV1.15B25,2013-06-19 20:58:00,
2013-06-19 22:00:00,61.6,50.5,29.89,WNW,293,1.6,1.9,67,0.00,,,0.00,LWC V2.10 B1500,2013-06-19 21:00:00,
2013-06-19 22:03:00,68.7,60.1,29.88,SW,225,0.0,0.0,74,0.00,,,0.00,WeatherCatV1.15B25,2013-06-19 21:03:00,
2013-06-19 22:08:00,68.5,59.9,29.87,SW,225,0.0,0.0,74,0.00,,,0.00,WeatherCatV1.15B25,2013-06-19 21:08:00,
2013-06-19 22:10:00,61.6,50.5,29.89,WNW,293,1.6,1.9,67,0.00,,,0.00,LWC V2.10 B1500,2013-06-19 21:10:00,
2013-06-19 22:13:00,68.4,59.8,29.87,SW,225,0.0,0.0,74,0.00,,,0.00,WeatherCatV1.15B25,2013-06-19 21:13:00,
2013-06-19 22:18:00,68.2,59.6,29.87,SW,225,0.0,0.0,74,0.00,,,0.00,WeatherCatV1.15B25,2013-06-19 21:18:00,
2013-06-19 22:20:00,61.6,50.5,29.89,WNW,293,1.6,1.9,67,0.00,,,0.00,LWC V2.10 B1500,2013-06-19 21:20:00,
2013-06-19 22:23:00,67.8,59.6,29.88,SW,225,0.0,0.0,75,0.00,,,0.00,WeatherCatV1.15B25,2013-06-19 21:23:00,
2013-06-19 22:28:00,67.8,59.6,29.88,SW,225,0.0,0.0,75,0.00,,,0.00,WeatherCatV1.15B25,2013-06-19 21:28:00,
2013-06-19 22:30:00,61.6,50.5,29.89,WNW,293,1.6,1.9,67,0.00,,,0.00,LWC V2.10 B1500,2013-06-19 21:30:00,
2013-06-19 22:33:00,67.6,59.5,29.88,SW,225,0.0,0.0,75,0.00,,,0.00,WeatherCatV1.15B25,2013-06-19 21:33:00,
2013-06-19 22:38:00,67.5,59.3,29.88,SW,225,0.0,0.0,75,0.00,,,0.00,WeatherCatV1.15B25,2013-06-19 21:38:00,
2013-06-19 22:40:00,61.6,50.5,29.89,WNW,293,1.6,1.9,67,0.00,,,0.00,LWC V2.10 B1500,2013-06-19 21:40:00,
2013-06-19 22:43:00,67.3,59.1,29.88,SW,225,0.0,0.0,75,0.00,,,0.00,WeatherCatV1.15B25,2013-06-19 21:43:00,
2013-06-19 22:48:00,66.9,59.1,29.88,SW,225,0.0,0.0,76,0.00,,,0.00,WeatherCatV1.15B25,2013-06-19 21:48:00,
2013-06-19 22:50:00,61.6,50.5,29.89,WNW,293,1.6,1.9,67,0.00,,,0.00,LWC V2.10 B1500,2013-06-19 21:50:00,
2013-06-19 22:53:00,66.9,59.1,29.88,SW,225,0.0,0.0,76,0.00,,,0.00,WeatherCatV1.15B25,2013-06-19 21:53:00,
2013-06-19 22:58:00,66.7,58.9,29.88,SW,225,0.0,0.0,76,0.00,,,0.00,WeatherCatV1.15B25,2013-06-19 21:58:00,
2013-06-19 23:00:00,61.6,50.5,29.89,WNW,293,1.6,1.9,67,0.00,,,0.00,LWC V2.10 B1500,2013-06-19 22:00:00,
2013-06-19 23:03:00,66.7,58.9,29.88,SW,225,0.0,0.0,76,0.00,,,0.00,WeatherCatV1.15B25,2013-06-19 22:03:00,
2013-06-19 23:08:00,66.7,59.3,29.88,SW,225,0.0,0.0,77,0.00,,,0.00,WeatherCatV1.15B25,2013-06-19 22:08:00,
2013-06-19 23:10:00,61.6,50.5,29.89,WNW,293,1.6,1.9,67,0.00,,,0.00,LWC V2.10 B1500,2013-06-19 22:10:00,
2013-06-19 23:13:00,66.7,59.3,29.88,SW,225,0.0,0.0,77,0.00,,,0.00,WeatherCatV1.15B25,2013-06-19 22:13:00,
2013-06-19 23:18:00,66.7,59.7,29.88,SW,225,0.0,0.0,78,0.00,,,0.00,WeatherCatV1.15B25,2013-06-19 22:18:00,
2013-06-19 23:20:00,61.6,50.5,29.89,WNW,293,1.6,1.9,67,0.00,,,0.00,LWC V2.10 B1500,2013-06-19 22:20:00,
2013-06-19 23:23:00,66.9,59.9,29.88,WSW,247,0.9,0.9,78,0.00,,,0.00,WeatherCatV1.15B25,2013-06-19 22:23:00,
2013-06-19 23:28:00,66.9,59.9,29.88,SW,225,0.0,0.0,78,0.00,,,0.00,WeatherCatV1.15B25,2013-06-19 22:28:00,
2013-06-19 23:30:00,61.6,50.5,29.89,WNW,293,1.6,1.9,67,0.00,,,0.00,LWC V2.10 B1500,2013-06-19 22:30:00,
2013-06-19 23:33:00,66.9,59.9,29.88,SW,225,0.0,0.0,78,0.00,,,0.00,WeatherCatV1.15B25,2013-06-19 22:33:00,
2013-06-19 23:38:00,66.7,59.7,29.88,NW,315,0.0,0.0,78,0.00,,,0.00,WeatherCatV1.15B25,2013-06-19 22:38:00,
2013-06-19 23:40:00,61.6,50.5,29.89,WNW,293,1.6,1.9,67,0.00,,,0.00,LWC V2.10 B1500,2013-06-19 22:40:00,
2013-06-19 23:43:00,66.7,59.7,29.88,NW,315,0.0,0.0,78,0.00,,,0.00,WeatherCatV1.15B25,2013-06-19 22:43:00,
2013-06-19 23:48:00,66.7,59.7,29.88,North,0,0.0,1.3,78,0.00,,,0.00,WeatherCatV1.15B25,2013-06-19 22:48:00,
2013-06-19 23:50:00,61.6,50.5,29.89,WNW,293,1.6,1.9,67,0.00,,,0.00,LWC V2.10 B1500,2013-06-19 22:50:00,
2013-06-19 23:53:00,66.6,59.1,29.88,West,270,0.0,0.0,77,0.00,,,0.00,WeatherCatV1.15B25,2013-06-19 22:53:00,
2013-06-19 23:58:00,66.4,58.9,29.88,NW,315,1.3,1.3,77,0.00,,,0.00,WeatherCatV1.15B25,2013-06-19 22:58:00,